sensor_id;sensor_type;location;lat;lon;timestamp;pressure;altitude;pressure_sealevel;temperature;humidity
73341;BME280;61578;52.002;5.468;2023-04-24T00:00:09;99834.31;;;11.57;85.71
73341;BME280;61578;52.002;5.468;2023-04-24T00:00:40;99823.31;;;11.51;85.70
73341;BME280;61578;52.002;5.468;2023-04-24T00:01:11;99835.03;;;11.59;85.14
73341;BME280;61578;52.002;5.468;2023-04-24T00:01:43;99838.78;;;11.57;85.40
73341;BME280;61578;52.002;5.468;2023-04-24T00:02:20;99835.88;;;11.60;85.65
73341;BME280;61578;52.002;5.468;2023-04-24T00:02:52;99844.53;;;11.62;85.27
73341;BME280;61578;52.002;5.468;2023-04-24T00:03:27;99847.19;;;11.62;85.11
73341;BME280;61578;52.002;5.468;2023-04-24T00:04:01;99839.50;;;11.59;85.27
73341;BME280;61578;52.002;5.468;2023-04-24T00:04:37;99832.50;;;11.58;85.91
73341;BME280;61578;52.002;5.468;2023-04-24T00:05:10;99837.09;;;11.56;85.26
73341;BME280;61578;52.002;5.468;2023-04-24T00:05:42;99826.97;;;11.50;85.61
73341;BME280;61578;52.002;5.468;2023-04-24T00:06:13;99843.97;;;11.58;85.72
73341;BME280;61578;52.002;5.468;2023-04-24T00:06:44;99840.47;;;11.58;85.61
73341;BME280;61578;52.002;5.468;2023-04-24T00:07:15;99845.78;;;11.58;85.90
73341;BME280;61578;52.002;5.468;2023-04-24T00:07:53;99846.03;;;11.55;86.00
73341;BME280;61578;52.002;5.468;2023-04-24T00:08:25;99844.09;;;11.57;85.92
73341;BME280;61578;52.002;5.468;2023-04-24T00:08:55;99827.09;;;11.48;85.94
73341;BME280;61578;52.002;5.468;2023-04-24T00:09:27;99837.81;;;11.58;86.33
73341;BME280;61578;52.002;5.468;2023-04-24T00:09:58;99845.91;;;11.56;85.80
73341;BME280;61578;52.002;5.468;2023-04-24T00:10:30;99844.09;;;11.57;85.76
73341;BME280;61578;52.002;5.468;2023-04-24T00:11:01;99845.78;;;11.58;85.50
73341;BME280;61578;52.002;5.468;2023-04-24T00:11:31;99845.91;;;11.56;85.70
73341;BME280;61578;52.002;5.468;2023-04-24T00:12:02;99849.41;;;11.57;85.49
73341;BME280;61578;52.002;5.468;2023-04-24T00:12:35;99848.44;;;11.58;85.29
73341;BME280;61578;52.002;5.468;2023-04-24T00:13:06;99849.53;;;11.55;85.51
73341;BME280;61578;52.002;5.468;2023-04-24T00:13:37;99857.50;;;11.55;85.46
73341;BME280;61578;52.002;5.468;2023-04-24T00:14:08;99849.41;;;11.57;85.11
73341;BME280;61578;52.002;5.468;2023-04-24T00:14:41;99850.38;;;11.56;85.78
73341;BME280;61578;52.002;5.468;2023-04-24T00:15:12;99845.06;;;11.56;85.50
73341;BME280;61578;52.002;5.468;2023-04-24T00:15:43;99844.34;;;11.54;85.74
73341;BME280;61578;52.002;5.468;2023-04-24T00:16:13;99848.81;;;11.53;85.88
73341;BME280;61578;52.002;5.468;2023-04-24T00:16:44;99851.34;;;11.55;85.92
73341;BME280;61578;52.002;5.468;2023-04-24T00:17:15;99847.13;;;11.52;85.52
73341;BME280;61578;52.002;5.468;2023-04-24T00:17:46;99844.34;;;11.54;85.17
73341;BME280;61578;52.002;5.468;2023-04-24T00:18:21;99841.94;;;11.51;84.99
73341;BME280;61578;52.002;5.468;2023-04-24T00:18:51;99847.97;;;11.53;85.34
73341;BME280;61578;52.002;5.468;2023-04-24T00:19:23;99849.66;;;11.54;84.71
73341;BME280;61578;52.002;5.468;2023-04-24T00:19:53;99845.19;;;11.54;85.22
73341;BME280;61578;52.002;5.468;2023-04-24T00:20:31;99850.63;;;11.53;85.61
73341;BME280;61578;52.002;5.468;2023-04-24T00:21:05;99852.31;;;11.54;85.34
73341;BME280;61578;52.002;5.468;2023-04-24T00:21:36;99849.53;;;11.55;85.17
73341;BME280;61578;52.002;5.468;2023-04-24T00:22:07;99851.59;;;11.52;85.17
73341;BME280;61578;52.002;5.468;2023-04-24T00:22:38;99852.44;;;11.52;85.34
73341;BME280;61578;52.002;5.468;2023-04-24T00:23:09;99851.59;;;11.52;85.26
73341;BME280;61578;52.002;5.468;2023-04-24T00:23:39;99853.28;;;11.53;85.22
73341;BME280;61578;52.002;5.468;2023-04-24T00:24:10;99856.06;;;11.51;85.36
73341;BME280;61578;52.002;5.468;2023-04-24T00:24:44;99853.28;;;11.53;85.48
73341;BME280;61578;52.002;5.468;2023-04-24T00:25:14;99854.13;;;11.53;84.86
73341;BME280;61578;52.002;5.468;2023-04-24T00:25:45;99855.22;;;11.51;84.71
73341;BME280;61578;52.002;5.468;2023-04-24T00:26:16;99852.31;;;11.54;84.70
73341;BME280;61578;52.002;5.468;2023-04-24T00:26:47;99857.50;;;11.55;84.27
73341;BME280;61578;52.002;5.468;2023-04-24T00:27:17;99843.19;;;11.47;84.78
73341;BME280;61578;52.002;5.468;2023-04-24T00:27:48;99855.81;;;11.54;84.33
73341;BME280;61578;52.002;5.468;2023-04-24T00:28:19;99863.91;;;11.53;85.08
73341;BME280;61578;52.002;5.468;2023-04-24T00:28:49;99856.78;;;11.53;85.50
73341;BME280;61578;52.002;5.468;2023-04-24T00:29:20;99857.75;;;11.52;85.45
73341;BME280;61578;52.002;5.468;2023-04-24T00:29:52;99860.41;;;11.52;85.17
73341;BME280;61578;52.002;5.468;2023-04-24T00:30:25;99863.78;;;11.54;85.28
73341;BME280;61578;52.002;5.468;2023-04-24T00:30:56;99863.91;;;11.53;85.15
73341;BME280;61578;52.002;5.468;2023-04-24T00:31:26;99857.63;;;11.54;85.05
73341;BME280;61578;52.002;5.468;2023-04-24T00:31:57;99858.72;;;11.51;85.05
73341;BME280;61578;52.002;5.468;2023-04-24T00:32:28;99857.88;;;11.51;84.93
73341;BME280;61578;52.002;5.468;2023-04-24T00:32:59;99855.09;;;11.52;85.25
73341;BME280;61578;52.002;5.468;2023-04-24T00:33:29;99861.38;;;11.51;85.26
73341;BME280;61578;52.002;5.468;2023-04-24T00:34:01;99852.72;;;11.49;85.57
73341;BME280;61578;52.002;5.468;2023-04-24T00:34:32;99855.94;;;11.53;85.30
73341;BME280;61578;52.002;5.468;2023-04-24T00:35:03;99852.44;;;11.52;85.65
73341;BME280;61578;52.002;5.468;2023-04-24T00:35:36;99859.56;;;11.52;85.85
73341;BME280;61578;52.002;5.468;2023-04-24T00:36:06;99857.03;;;11.50;85.63
73341;BME280;61578;52.002;5.468;2023-04-24T00:36:37;99854.25;;;11.52;86.24
73341;BME280;61578;52.002;5.468;2023-04-24T00:37:08;99865.63;;;11.54;85.75
73341;BME280;61578;52.002;5.468;2023-04-24T00:37:39;99857.88;;;11.51;85.78
73341;BME280;61578;52.002;5.468;2023-04-24T00:38:10;99855.94;;;11.53;85.17
73341;BME280;61578;52.002;5.468;2023-04-24T00:38:40;99862.94;;;11.54;85.50
73341;BME280;61578;52.002;5.468;2023-04-24T00:39:11;99856.91;;;11.52;85.48
73341;BME280;61578;52.002;5.468;2023-04-24T00:39:41;99859.44;;;11.53;85.32
73341;BME280;61578;52.002;5.468;2023-04-24T00:40:13;99858.47;;;11.54;85.17
73341;BME280;61578;52.002;5.468;2023-04-24T00:40:46;99850.31;;;11.46;85.33
73341;BME280;61578;52.002;5.468;2023-04-24T00:41:18;99862.22;;;11.52;85.67
73341;BME280;61578;52.002;5.468;2023-04-24T00:41:49;99848.63;;;11.45;84.95
73341;BME280;61578;52.002;5.468;2023-04-24T00:42:21;99860.41;;;11.52;85.95
73341;BME280;61578;52.002;5.468;2023-04-24T00:42:51;99861.25;;;11.53;85.63
73341;BME280;61578;52.002;5.468;2023-04-24T00:43:25;99852.13;;;11.46;85.65
73341;BME280;61578;52.002;5.468;2023-04-24T00:43:56;99860.28;;;11.54;85.99
73341;BME280;61578;52.002;5.468;2023-04-24T00:44:27;99853.28;;;11.53;86.04
73341;BME280;61578;52.002;5.468;2023-04-24T00:44:58;99867.31;;;11.55;85.63
73341;BME280;61578;52.002;5.468;2023-04-24T00:45:31;99862.09;;;11.53;85.90
73341;BME280;61578;52.002;5.468;2023-04-24T00:46:02;99855.94;;;11.53;85.86
73341;BME280;61578;52.002;5.468;2023-04-24T00:46:32;99861.97;;;11.55;85.70
73341;BME280;61578;52.002;5.468;2023-04-24T00:47:03;99845.13;;;11.44;85.97
73341;BME280;61578;52.002;5.468;2023-04-24T00:47:34;99857.88;;;11.51;85.14
73341;BME280;61578;52.002;5.468;2023-04-24T00:48:05;99863.91;;;11.53;85.03
73341;BME280;61578;52.002;5.468;2023-04-24T00:48:38;99855.22;;;11.51;85.39
73341;BME280;61578;52.002;5.468;2023-04-24T00:49:09;99865.63;;;11.54;85.30
73341;BME280;61578;52.002;5.468;2023-04-24T00:49:42;99849.59;;;11.44;85.42
73341;BME280;61578;52.002;5.468;2023-04-24T00:50:15;99865.72;;;11.52;84.83
73341;BME280;61578;52.002;5.468;2023-04-24T00:50:46;99862.34;;;11.50;85.14
73341;BME280;61578;52.002;5.468;2023-04-24T00:51:17;99859.84;;;11.49;85.06
73341;BME280;61578;52.002;5.468;2023-04-24T00:51:49;99863.19;;;11.51;85.27
73341;BME280;61578;52.002;5.468;2023-04-24T00:52:21;99871.44;;;11.48;84.83
73341;BME280;61578;52.002;5.468;2023-04-24T00:52:54;99862.63;;;11.47;84.67
73341;BME280;61578;52.002;5.468;2023-04-24T00:53:25;99864.31;;;11.48;84.80
73341;BME280;61578;52.002;5.468;2023-04-24T00:53:56;99856.34;;;11.48;85.04
73341;BME280;61578;52.002;5.468;2023-04-24T00:54:26;99859.13;;;11.47;85.53
73341;BME280;61578;52.002;5.468;2023-04-24T00:54:57;99858.88;;;11.50;85.35
73341;BME280;61578;52.002;5.468;2023-04-24T00:55:28;99859.00;;;11.48;84.83
73341;BME280;61578;52.002;5.468;2023-04-24T00:56:00;99859.84;;;11.49;84.79
73341;BME280;61578;52.002;5.468;2023-04-24T00:56:32;99866.97;;;11.48;85.57
73341;BME280;61578;52.002;5.468;2023-04-24T00:57:05;99858.16;;;11.48;85.71
73341;BME280;61578;52.002;5.468;2023-04-24T00:57:37;99864.19;;;11.50;85.39
73341;BME280;61578;52.002;5.468;2023-04-24T00:58:08;99859.97;;;11.47;85.09
73341;BME280;61578;52.002;5.468;2023-04-24T00:58:39;99861.78;;;11.47;85.53
73341;BME280;61578;52.002;5.468;2023-04-24T00:59:16;99864.31;;;11.48;85.57
73341;BME280;61578;52.002;5.468;2023-04-24T00:59:48;99859.84;;;11.49;85.82
73341;BME280;61578;52.002;5.468;2023-04-24T01:00:22;99857.03;;;11.50;85.92
73341;BME280;61578;52.002;5.468;2023-04-24T01:00:56;99860.53;;;11.51;85.98
73341;BME280;61578;52.002;5.468;2023-04-24T01:01:27;99855.50;;;11.48;85.87
73341;BME280;61578;52.002;5.468;2023-04-24T01:01:58;99862.34;;;11.50;85.79
73341;BME280;61578;52.002;5.468;2023-04-24T01:02:29;99859.69;;;11.50;85.49
73341;BME280;61578;52.002;5.468;2023-04-24T01:03:04;99839.19;;;11.41;85.33
73341;BME280;61578;52.002;5.468;2023-04-24T01:03:36;99860.81;;;11.48;85.20
73341;BME280;61578;52.002;5.468;2023-04-24T01:04:08;99865.84;;;11.51;85.36
73341;BME280;61578;52.002;5.468;2023-04-24T01:04:40;99866.00;;;11.49;85.40
73341;BME280;61578;52.002;5.468;2023-04-24T01:05:15;99869.63;;;11.48;84.76
73341;BME280;61578;52.002;5.468;2023-04-24T01:05:48;99865.84;;;11.51;84.85
73341;BME280;61578;52.002;5.468;2023-04-24T01:06:20;99867.81;;;11.49;85.08
73341;BME280;61578;52.002;5.468;2023-04-24T01:06:55;99868.66;;;11.49;85.07
73341;BME280;61578;52.002;5.468;2023-04-24T01:07:27;99869.75;;;11.47;85.13
73341;BME280;61578;52.002;5.468;2023-04-24T01:08:02;99863.34;;;11.49;84.44
73341;BME280;61578;52.002;5.468;2023-04-24T01:08:34;99869.63;;;11.48;84.58
73341;BME280;61578;52.002;5.468;2023-04-24T01:09:07;99865.16;;;11.49;84.78
73341;BME280;61578;52.002;5.468;2023-04-24T01:09:40;99875.94;;;11.47;84.83
73341;BME280;61578;52.002;5.468;2023-04-24T01:10:15;99875.06;;;11.47;85.25
73341;BME280;61578;52.002;5.468;2023-04-24T01:10:53;99860.75;;;11.38;85.61
73341;BME280;61578;52.002;5.468;2023-04-24T01:11:25;99871.69;;;11.44;85.35
73341;BME280;61578;52.002;5.468;2023-04-24T01:11:56;99870.00;;;11.43;85.18
73341;BME280;61578;52.002;5.468;2023-04-24T01:12:27;99876.28;;;11.42;85.53
73341;BME280;61578;52.002;5.468;2023-04-24T01:12:58;99876.75;;;11.48;84.90
73341;BME280;61578;52.002;5.468;2023-04-24T01:13:31;99871.44;;;11.48;84.31
73341;BME280;61578;52.002;5.468;2023-04-24T01:14:03;99874.34;;;11.44;84.83
73341;BME280;61578;52.002;5.468;2023-04-24T01:14:33;99877.97;;;11.43;85.48
73341;BME280;61578;52.002;5.468;2023-04-24T01:15:08;99864.50;;;11.35;85.18
73341;BME280;61578;52.002;5.468;2023-04-24T01:15:39;99871.09;;;11.41;84.46
73341;BME280;61578;52.002;5.468;2023-04-24T01:16:10;99872.91;;;11.40;85.20
73341;BME280;61578;52.002;5.468;2023-04-24T01:16:41;99878.38;;;11.39;85.11
73341;BME280;61578;52.002;5.468;2023-04-24T01:17:12;99860.25;;;11.33;85.18
73341;BME280;61578;52.002;5.468;2023-04-24T01:17:43;99872.22;;;11.38;85.18
73341;BME280;61578;52.002;5.468;2023-04-24T01:18:14;99881.88;;;11.39;84.91
73341;BME280;61578;52.002;5.468;2023-04-24T01:18:45;99874.59;;;11.41;84.93
73341;BME280;61578;52.002;5.468;2023-04-24T01:19:18;99878.22;;;11.40;85.35
73341;BME280;61578;52.002;5.468;2023-04-24T01:19:52;99880.88;;;11.40;85.05
73341;BME280;61578;52.002;5.468;2023-04-24T01:20:24;99870.25;;;11.40;85.75
73341;BME280;61578;52.002;5.468;2023-04-24T01:20:58;99871.25;;;11.39;85.36
73341;BME280;61578;52.002;5.468;2023-04-24T01:21:30;99875.72;;;11.39;85.63
73341;BME280;61578;52.002;5.468;2023-04-24T01:22:11;99879.06;;;11.41;85.83
73341;BME280;61578;52.002;5.468;2023-04-24T01:22:44;99880.75;;;11.42;86.05
73341;BME280;61578;52.002;5.468;2023-04-24T01:23:15;99874.59;;;11.41;85.77
73341;BME280;61578;52.002;5.468;2023-04-24T01:23:47;99877.25;;;11.41;85.55
73341;BME280;61578;52.002;5.468;2023-04-24T01:24:18;99879.78;;;11.43;85.38
73341;BME280;61578;52.002;5.468;2023-04-24T01:24:50;99878.94;;;11.42;85.34
73341;BME280;61578;52.002;5.468;2023-04-24T01:25:22;99878.94;;;11.42;85.58
73341;BME280;61578;52.002;5.468;2023-04-24T01:26:16;99885.22;;;11.41;85.98
73341;BME280;61578;52.002;5.468;2023-04-24T01:26:47;99866.63;;;11.41;86.06
73341;BME280;61578;52.002;5.468;2023-04-24T01:27:19;99877.97;;;11.43;85.68
73341;BME280;61578;52.002;5.468;2023-04-24T01:27:50;99886.91;;;11.42;85.65
73341;BME280;61578;52.002;5.468;2023-04-24T01:28:22;99875.31;;;11.43;85.87
73341;BME280;61578;52.002;5.468;2023-04-24T01:28:53;99879.66;;;11.44;85.33
73341;BME280;61578;52.002;5.468;2023-04-24T01:29:24;99873.50;;;11.44;85.61
73341;BME280;61578;52.002;5.468;2023-04-24T01:29:58;99879.78;;;11.43;85.59
73341;BME280;61578;52.002;5.468;2023-04-24T01:30:31;99878.94;;;11.42;85.69
73341;BME280;61578;52.002;5.468;2023-04-24T01:31:02;99875.31;;;11.43;85.95
73341;BME280;61578;52.002;5.468;2023-04-24T01:31:34;99875.31;;;11.43;86.18
73341;BME280;61578;52.002;5.468;2023-04-24T01:32:06;99875.06;;;11.47;85.88
73341;BME280;61578;52.002;5.468;2023-04-24T01:32:37;99878.69;;;11.46;86.56
73341;BME280;61578;52.002;5.468;2023-04-24T01:33:09;99863.84;;;11.43;85.54
73341;BME280;61578;52.002;5.468;2023-04-24T01:33:42;99878.69;;;11.46;85.90
73341;BME280;61578;52.002;5.468;2023-04-24T01:34:13;99875.06;;;11.47;85.31
73341;BME280;61578;52.002;5.468;2023-04-24T01:34:46;99882.09;;;11.48;85.60
73341;BME280;61578;52.002;5.468;2023-04-24T01:35:18;99878.47;;;11.49;85.30
73341;BME280;61578;52.002;5.468;2023-04-24T01:35:50;99881.25;;;11.47;85.48
73341;BME280;61578;52.002;5.468;2023-04-24T01:36:21;99874.22;;;11.46;85.88
73341;BME280;61578;52.002;5.468;2023-04-24T01:36:53;99872.41;;;11.47;85.65
73341;BME280;61578;52.002;5.468;2023-04-24T01:37:23;99870.59;;;11.47;85.76
73341;BME280;61578;52.002;5.468;2023-04-24T01:37:54;99876.75;;;11.48;85.16
73341;BME280;61578;52.002;5.468;2023-04-24T01:38:25;99877.00;;;11.44;85.87
73341;BME280;61578;52.002;5.468;2023-04-24T01:38:56;99870.72;;;11.46;85.78
73341;BME280;61578;52.002;5.468;2023-04-24T01:39:27;99870.72;;;11.46;85.66
73341;BME280;61578;52.002;5.468;2023-04-24T01:39:59;99874.00;;;11.49;85.64
73341;BME280;61578;52.002;5.468;2023-04-24T01:40:30;99870.59;;;11.47;85.73
73341;BME280;61578;52.002;5.468;2023-04-24T01:41:02;99869.75;;;11.47;85.75
73341;BME280;61578;52.002;5.468;2023-04-24T01:41:33;99872.41;;;11.47;85.47
73341;BME280;61578;52.002;5.468;2023-04-24T01:42:05;99873.50;;;11.44;85.29
73341;BME280;61578;52.002;5.468;2023-04-24T01:42:41;99872.66;;;11.43;85.90
73341;BME280;61578;52.002;5.468;2023-04-24T01:43:13;99873.38;;;11.46;85.91
73341;BME280;61578;52.002;5.468;2023-04-24T01:43:44;99868.78;;;11.48;85.84
73341;BME280;61578;52.002;5.468;2023-04-24T01:44:15;99870.84;;;11.44;85.90
73341;BME280;61578;52.002;5.468;2023-04-24T01:44:46;99876.03;;;11.46;86.25
73341;BME280;61578;52.002;5.468;2023-04-24T01:45:17;99875.81;;;11.49;85.66
73341;BME280;61578;52.002;5.468;2023-04-24T01:45:48;99872.19;;;11.50;85.19
73341;BME280;61578;52.002;5.468;2023-04-24T01:46:21;99871.06;;;11.52;85.07
73341;BME280;61578;52.002;5.468;2023-04-24T01:46:55;99862.75;;;11.46;85.45
73341;BME280;61578;52.002;5.468;2023-04-24T01:47:26;99878.19;;;11.52;85.48
73341;BME280;61578;52.002;5.468;2023-04-24T01:47:57;99865.84;;;11.51;85.27
73341;BME280;61578;52.002;5.468;2023-04-24T01:48:28;99871.06;;;11.52;85.41
73341;BME280;61578;52.002;5.468;2023-04-24T01:49:00;99878.19;;;11.52;85.71
73341;BME280;61578;52.002;5.468;2023-04-24T01:49:32;99877.22;;;11.53;85.11
73341;BME280;61578;52.002;5.468;2023-04-24T01:50:04;99873.00;;;11.50;85.62
73341;BME280;61578;52.002;5.468;2023-04-24T01:50:36;99878.19;;;11.52;85.32
73341;BME280;61578;52.002;5.468;2023-04-24T01:51:06;99855.75;;;11.44;85.31
73341;BME280;61578;52.002;5.468;2023-04-24T01:51:37;99873.59;;;11.54;85.49
73341;BME280;61578;52.002;5.468;2023-04-24T01:52:11;99873.72;;;11.52;85.11
73341;BME280;61578;52.002;5.468;2023-04-24T01:52:45;99866.84;;;11.50;85.23
73341;BME280;61578;52.002;5.468;2023-04-24T01:53:15;99874.84;;;11.50;85.74
73341;BME280;61578;52.002;5.468;2023-04-24T01:53:46;99876.66;;;11.49;86.35
73341;BME280;61578;52.002;5.468;2023-04-24T01:54:17;99868.41;;;11.52;85.71
73341;BME280;61578;52.002;5.468;2023-04-24T01:54:47;99880.00;;;11.51;85.57
73341;BME280;61578;52.002;5.468;2023-04-24T01:55:18;99878.31;;;11.50;85.51
73341;BME280;61578;52.002;5.468;2023-04-24T01:55:49;99882.66;;;11.51;86.14
73341;BME280;61578;52.002;5.468;2023-04-24T01:56:22;99878.59;;;11.47;85.96
73341;BME280;61578;52.002;5.468;2023-04-24T01:56:55;99880.97;;;11.50;85.87
73341;BME280;61578;52.002;5.468;2023-04-24T01:57:26;99878.66;;;11.57;85.62
73341;BME280;61578;52.002;5.468;2023-04-24T01:57:59;99869.25;;;11.53;85.62
73341;BME280;61578;52.002;5.468;2023-04-24T01:58:30;99872.75;;;11.53;85.48
73341;BME280;61578;52.002;5.468;2023-04-24T01:59:03;99860.09;;;11.46;86.08
73341;BME280;61578;52.002;5.468;2023-04-24T01:59:34;99869.97;;;11.55;85.70
73341;BME280;61578;52.002;5.468;2023-04-24T02:00:07;99865.00;;;11.50;85.78
73341;BME280;61578;52.002;5.468;2023-04-24T02:00:38;99858.72;;;11.51;85.88
73341;BME280;61578;52.002;5.468;2023-04-24T02:01:08;99872.63;;;11.55;85.94
73341;BME280;61578;52.002;5.468;2023-04-24T02:01:39;99863.47;;;11.48;86.14
73341;BME280;61578;52.002;5.468;2023-04-24T02:02:10;99877.22;;;11.53;85.62
73341;BME280;61578;52.002;5.468;2023-04-24T02:02:41;99876.38;;;11.52;86.18
73341;BME280;61578;52.002;5.468;2023-04-24T02:03:12;99874.31;;;11.56;85.95
73341;BME280;61578;52.002;5.468;2023-04-24T02:03:43;99871.78;;;11.54;86.04
73341;BME280;61578;52.002;5.468;2023-04-24T02:04:14;99869.25;;;11.53;86.40
73341;BME280;61578;52.002;5.468;2023-04-24T02:04:45;99870.94;;;11.54;86.53
73341;BME280;61578;52.002;5.468;2023-04-24T02:05:16;99870.09;;;11.53;86.04
73341;BME280;61578;52.002;5.468;2023-04-24T02:05:46;99871.66;;;11.56;86.40
73341;BME280;61578;52.002;5.468;2023-04-24T02:06:17;99873.47;;;11.55;86.21
73341;BME280;61578;52.002;5.468;2023-04-24T02:06:48;99866.47;;;11.54;86.31
73341;BME280;61578;52.002;5.468;2023-04-24T02:07:18;99871.53;;;11.57;86.39
73341;BME280;61578;52.002;5.468;2023-04-24T02:07:49;99875.03;;;11.58;86.19
73341;BME280;61578;52.002;5.468;2023-04-24T02:08:20;99867.06;;;11.58;86.24
73341;BME280;61578;52.002;5.468;2023-04-24T02:08:51;99870.81;;;11.55;86.57
73341;BME280;61578;52.002;5.468;2023-04-24T02:09:21;99870.81;;;11.55;86.56
73341;BME280;61578;52.002;5.468;2023-04-24T02:09:52;99867.06;;;11.58;86.13
73341;BME280;61578;52.002;5.468;2023-04-24T02:10:22;99871.66;;;11.56;86.47
73341;BME280;61578;52.002;5.468;2023-04-24T02:10:55;99870.81;;;11.55;86.42
73341;BME280;61578;52.002;5.468;2023-04-24T02:11:26;99869.09;;;11.33;87.19
73341;BME280;61578;52.002;5.468;2023-04-24T02:11:57;99866.78;;;11.08;88.27
73341;BME280;61578;52.002;5.468;2023-04-24T02:12:28;99872.31;;;11.05;88.84
73341;BME280;61578;52.002;5.468;2023-04-24T02:12:58;99867.88;;;10.94;89.66
73341;BME280;61578;52.002;5.468;2023-04-24T02:13:30;99874.03;;;10.95;89.58
73341;BME280;61578;52.002;5.468;2023-04-24T02:14:00;99869.47;;;10.86;89.99
73341;BME280;61578;52.002;5.468;2023-04-24T02:14:31;99870.78;;;10.91;90.79
73341;BME280;61578;52.002;5.468;2023-04-24T02:15:02;99873.53;;;10.90;90.61
73341;BME280;61578;52.002;5.468;2023-04-24T02:15:33;99878.75;;;10.91;90.67
73341;BME280;61578;52.002;5.468;2023-04-24T02:16:04;99870.78;;;10.91;90.40
73341;BME280;61578;52.002;5.468;2023-04-24T02:16:34;99851.50;;;10.78;90.31
73341;BME280;61578;52.002;5.468;2023-04-24T02:17:06;99866.31;;;10.92;90.57
73341;BME280;61578;52.002;5.468;2023-04-24T02:17:37;99867.16;;;10.92;90.46
73341;BME280;61578;52.002;5.468;2023-04-24T02:18:08;99875.00;;;10.94;90.46
73341;BME280;61578;52.002;5.468;2023-04-24T02:18:40;99877.66;;;10.94;90.46
73341;BME280;61578;52.002;5.468;2023-04-24T02:19:11;99859.56;;;10.88;91.12
73341;BME280;61578;52.002;5.468;2023-04-24T02:19:42;99876.09;;;10.91;91.19
73341;BME280;61578;52.002;5.468;2023-04-24T02:20:13;99874.28;;;10.92;91.00
73341;BME280;61578;52.002;5.468;2023-04-24T02:20:43;99872.47;;;10.92;90.50
73341;BME280;61578;52.002;5.468;2023-04-24T02:21:14;99864.16;;;10.86;90.73
73341;BME280;61578;52.002;5.468;2023-04-24T02:21:45;99874.38;;;10.90;90.92
73341;BME280;61578;52.002;5.468;2023-04-24T02:22:16;99862.47;;;10.85;91.10
73341;BME280;61578;52.002;5.468;2023-04-24T02:22:46;99861.75;;;10.83;91.12
73341;BME280;61578;52.002;5.468;2023-04-24T02:23:17;99873.44;;;10.91;90.75
73341;BME280;61578;52.002;5.468;2023-04-24T02:23:47;99876.94;;;10.92;90.43
73341;BME280;61578;52.002;5.468;2023-04-24T02:24:18;99871.88;;;10.89;90.32
73341;BME280;61578;52.002;5.468;2023-04-24T02:24:52;99882.50;;;10.89;90.05
73341;BME280;61578;52.002;5.468;2023-04-24T02:25:22;99878.16;;;10.88;90.26
73341;BME280;61578;52.002;5.468;2023-04-24T02:25:53;99871.03;;;10.88;90.50
73341;BME280;61578;52.002;5.468;2023-04-24T02:26:24;99886.81;;;10.90;90.37
73341;BME280;61578;52.002;5.468;2023-04-24T02:26:55;99881.50;;;10.90;90.47
73341;BME280;61578;52.002;5.468;2023-04-24T02:27:25;99873.69;;;10.88;90.20
73341;BME280;61578;52.002;5.468;2023-04-24T02:27:56;99874.38;;;10.90;90.18
73341;BME280;61578;52.002;5.468;2023-04-24T02:28:27;99873.69;;;10.88;90.05
73341;BME280;61578;52.002;5.468;2023-04-24T02:28:57;99873.69;;;10.88;90.55
73341;BME280;61578;52.002;5.468;2023-04-24T02:29:28;99878.16;;;10.88;90.40
73341;BME280;61578;52.002;5.468;2023-04-24T02:29:59;99887.66;;;10.90;90.08
73341;BME280;61578;52.002;5.468;2023-04-24T02:30:33;99871.53;;;10.82;90.18
73341;BME280;61578;52.002;5.468;2023-04-24T02:31:04;99877.06;;;10.90;90.29
73341;BME280;61578;52.002;5.468;2023-04-24T02:31:36;99874.38;;;10.90;90.35
73341;BME280;61578;52.002;5.468;2023-04-24T02:32:13;99873.69;;;10.88;90.29
73341;BME280;61578;52.002;5.468;2023-04-24T02:32:45;99878.16;;;10.88;90.30
73341;BME280;61578;52.002;5.468;2023-04-24T02:33:16;99883.31;;;10.89;90.47
73341;BME280;61578;52.002;5.468;2023-04-24T02:33:47;99871.88;;;10.89;90.20
73341;BME280;61578;52.002;5.468;2023-04-24T02:34:18;99878.16;;;10.88;90.35
73341;BME280;61578;52.002;5.468;2023-04-24T02:34:51;99879.00;;;10.88;90.35
73341;BME280;61578;52.002;5.468;2023-04-24T02:35:22;99878.16;;;10.88;90.43
73341;BME280;61578;52.002;5.468;2023-04-24T02:35:53;99874.38;;;10.90;90.25
73341;BME280;61578;52.002;5.468;2023-04-24T02:36:23;99870.03;;;10.89;90.54
73341;BME280;61578;52.002;5.468;2023-04-24T02:36:57;99874.53;;;10.89;90.53
73341;BME280;61578;52.002;5.468;2023-04-24T02:37:27;99874.53;;;10.89;90.60
73341;BME280;61578;52.002;5.468;2023-04-24T02:37:58;99871.88;;;10.89;90.75
73341;BME280;61578;52.002;5.468;2023-04-24T02:38:29;99879.84;;;10.89;90.90
73341;BME280;61578;52.002;5.468;2023-04-24T02:38:59;99873.53;;;10.90;90.99
73341;BME280;61578;52.002;5.468;2023-04-24T02:39:31;99870.19;;;10.88;90.79
73341;BME280;61578;52.002;5.468;2023-04-24T02:40:02;99879.00;;;10.88;90.93
73341;BME280;61578;52.002;5.468;2023-04-24T02:40:34;99869.47;;;10.86;90.79
73341;BME280;61578;52.002;5.468;2023-04-24T02:41:04;99874.53;;;10.89;90.47
73341;BME280;61578;52.002;5.468;2023-04-24T02:41:36;99870.91;;;10.90;90.32
73341;BME280;61578;52.002;5.468;2023-04-24T02:42:07;99871.63;;;10.92;90.13
73341;BME280;61578;52.002;5.468;2023-04-24T02:42:38;99884.06;;;10.91;89.98
73341;BME280;61578;52.002;5.468;2023-04-24T02:43:15;99872.59;;;10.91;90.16
73341;BME280;61578;52.002;5.468;2023-04-24T02:43:45;99871.88;;;10.89;90.03
73341;BME280;61578;52.002;5.468;2023-04-24T02:44:16;99871.75;;;10.90;89.81
73341;BME280;61578;52.002;5.468;2023-04-24T02:44:47;99864.75;;;10.89;90.17
73341;BME280;61578;52.002;5.468;2023-04-24T02:45:18;99863.78;;;10.90;90.24
73341;BME280;61578;52.002;5.468;2023-04-24T02:45:48;99864.63;;;10.91;90.84
73341;BME280;61578;52.002;5.468;2023-04-24T02:46:19;99871.63;;;10.92;90.77
73341;BME280;61578;52.002;5.468;2023-04-24T02:46:50;99871.75;;;10.90;90.10
73341;BME280;61578;52.002;5.468;2023-04-24T02:47:21;99874.28;;;10.92;89.60
73341;BME280;61578;52.002;5.468;2023-04-24T02:47:51;99871.63;;;10.92;89.55